Time;durP1;ratioP1;P1;durP2;ratioP2;P2;SDS_P1;SDS_P2;PMS_P1;PMS_P2;Temp;Humidity;BMP_temperature;BMP_pressure;BME280_temperature;BME280_humidity;BME280_pressure;Samples;Min_cycle;Max_cycle;Signal;HPM_P1;HPM_P2
2022/10/04 00:01:54;;;;;;;28.52;15.18;;;8.30;58.00;;;;;;7361194;19;20022;-70
2022/10/04 00:04:28;;;;;;;26.83;15.15;;;8.30;58.50;;;;;;7360688;19;20017;-69
2022/10/04 00:07:02;;;;;;;27.58;15.30;;;8.40;58.70;;;;;;7358784;19;20018;-69
2022/10/04 00:09:37;;;;;;;26.85;15.43;;;8.40;58.70;;;;;;7358668;19;20015;-69
2022/10/04 00:12:08;;;;;;;24.17;15.80;;;8.40;58.60;;;;;;7361640;19;20042;-70
2022/10/04 00:14:41;;;;;;;27.10;14.98;;;8.30;58.20;;;;;;7382388;19;20016;-69
2022/10/04 00:17:13;;;;;;;24.55;15.45;;;8.30;57.90;;;;;;7357108;19;20034;-69
2022/10/04 00:19:46;;;;;;;22.60;13.65;;;8.30;57.90;;;;;;7359360;19;20014;-69
2022/10/04 00:22:21;;;;;;;25.50;14.50;;;8.20;58.00;;;;;;7361774;19;20011;-69
2022/10/04 00:25:19;;;;;;;23.70;14.43;;;8.30;58.00;;;;;;7359941;19;20010;-70
2022/10/04 00:28:30;;;;;;;24.10;14.98;;;8.20;57.50;;;;;;7357871;19;20115;-69
2022/10/04 00:31:23;;;;;;;20.83;13.95;;;8.10;57.30;;;;;;7359151;19;20018;-69
2022/10/04 00:33:56;;;;;;;22.00;13.43;;;8.10;58.30;;;;;;7359940;19;20549;-69
2022/10/04 00:36:47;;;;;;;24.25;13.95;;;8.10;58.70;;;;;;7355831;19;20014;-68
2022/10/04 00:39:27;;;;;;;23.67;14.07;;;8.10;58.40;;;;;;7359855;19;20290;-69
2022/10/04 00:42:29;;;;;;;34.92;14.27;;;8.20;58.80;;;;;;7381764;19;20014;-70
2022/10/04 00:45:02;;;;;;;26.00;13.93;;;8.20;58.70;;;;;;7255887;19;2004379;-69
2022/10/04 00:47:40;;;;;;;24.15;12.80;;;8.20;58.30;;;;;;7379974;19;20342;-70
2022/10/04 00:50:17;;;;;;;23.50;13.85;;;8.20;58.10;;;;;;7357228;19;20539;-69
2022/10/04 00:52:53;;;;;;;24.15;12.65;;;8.20;57.80;;;;;;7358956;19;20026;-69
2022/10/04 00:55:30;;;;;;;19.98;12.93;;;8.10;57.40;;;;;;7357635;19;20011;-68
2022/10/04 00:58:02;;;;;;;26.70;13.77;;;8.20;57.40;;;;;;7356662;19;20447;-69
2022/10/04 01:00:34;;;;;;;20.25;13.35;;;8.10;56.80;;;;;;7359257;19;20022;-69
2022/10/04 01:03:12;;;;;;;21.38;11.60;;;8.00;57.50;;;;;;7360469;19;20466;-70
2022/10/04 01:05:45;;;;;;;20.33;13.68;;;8.00;56.70;;;;;;7379530;19;20029;-69
2022/10/04 01:08:20;;;;;;;24.63;13.02;;;8.00;56.80;;;;;;7357209;19;20010;-69
2022/10/04 01:10:54;;;;;;;23.48;14.15;;;8.00;56.90;;;;;;7358817;19;20010;-69
2022/10/04 01:13:26;;;;;;;20.23;13.90;;;8.00;57.00;;;;;;7359272;19;20506;-69
2022/10/04 01:16:05;;;;;;;18.40;12.52;;;7.90;56.80;;;;;;7356273;19;20017;-69
2022/10/04 01:18:39;;;;;;;29.25;12.60;;;7.70;56.00;;;;;;7357547;19;20616;-69
2022/10/04 01:21:22;;;;;;;18.15;11.68;;;7.50;55.80;;;;;;7357700;19;20467;-69
2022/10/04 01:24:14;;;;;;;19.55;11.90;;;7.40;56.20;;;;;;7380661;19;20018;-69
2022/10/04 01:26:45;;;;;;;19.40;13.45;;;7.40;56.90;;;;;;7357194;19;20029;-68
2022/10/04 01:29:18;;;;;;;15.57;11.18;;;7.40;56.80;;;;;;7357174;19;20014;-68
2022/10/04 01:31:50;;;;;;;18.60;11.85;;;7.40;57.00;;;;;;7356161;19;20463;-69
2022/10/04 01:34:22;;;;;;;17.15;12.00;;;7.50;57.40;;;;;;7356000;19;20018;-69
2022/10/04 01:36:55;;;;;;;22.13;12.93;;;7.50;57.90;;;;;;7357061;19;20038;-69
2022/10/04 01:39:29;;;;;;;22.65;13.27;;;7.60;58.20;;;;;;7356842;19;20014;-69
2022/10/04 01:42:06;;;;;;;20.85;12.52;;;7.60;58.40;;;;;;7380738;19;20011;-69
2022/10/04 01:44:46;;;;;;;21.55;13.35;;;7.70;58.70;;;;;;7357337;19;20010;-69
2022/10/04 01:47:19;;;;;;;24.88;12.52;;;7.60;58.40;;;;;;7354806;19;20404;-70
2022/10/04 01:49:50;;;;;;;20.25;13.18;;;7.60;58.50;;;;;;7356947;19;20026;-69
2022/10/04 01:52:25;;;;;;;22.13;12.98;;;7.60;58.50;;;;;;7358238;19;20802;-69
2022/10/04 01:55:01;;;;;;;;;;;7.50;57.90;;;;;;7357335;19;20018;-69
2022/10/04 01:57:38;;;;;;;22.05;12.88;;;7.50;58.30;;;;;;7354914;19;19950;-69
2022/10/04 02:00:12;;;;;;;19.30;11.70;;;7.60;58.70;;;;;;7358077;19;20018;-69
2022/10/04 02:02:45;;;;;;;19.17;11.93;;;7.50;58.60;;;;;;7378994;19;20451;-70
2022/10/04 02:05:21;;;;;;;23.63;12.63;;;7.50;58.80;;;;;;7355919;19;20014;-69
2022/10/04 02:07:52;;;;;;;18.17;12.02;;;7.50;59.20;;;;;;7355507;19;20017;-69
2022/10/04 02:10:26;;;;;;;17.20;11.82;;;7.50;59.10;;;;;;7358056;19;20029;-69
2022/10/04 02:12:58;;;;;;;17.23;11.95;;;7.50;58.70;;;;;;7356888;19;20010;-69
2022/10/04 02:15:28;;;;;;;19.52;11.82;;;7.50;58.80;;;;;;7355195;19;20108;-69
2022/10/04 02:17:59;;;;;;;18.40;11.55;;;7.40;58.50;;;;;;7376889;19;20014;-69
2022/10/04 02:20:29;;;;;;;16.77;11.43;;;7.40;58.80;;;;;;7356815;19;20324;-69
2022/10/04 02:23:02;;;;;;;17.95;10.73;;;7.40;58.80;;;;;;7357830;19;20380;-68
2022/10/04 02:25:37;;;;;;;14.93;10.25;;;7.30;58.70;;;;;;7354804;19;20014;-69
2022/10/04 02:28:12;;;;;;;18.52;11.32;;;7.30;58.90;;;;;;7353820;19;20007;-69
2022/10/04 02:32:56;;;;;;;17.25;11.30;;;7.30;59.10;;;;;;7353223;19;20014;-69
2022/10/04 02:33:37;;;;;;;16.25;11.07;;;7.20;58.90;;;;;;7364151;19;20493;-69
2022/10/04 02:36:09;;;;;;;18.60;11.10;;;7.20;58.90;;;;;;7363335;19;20347;-69
2022/10/04 02:38:43;;;;;;;17.08;10.85;;;7.20;59.10;;;;;;7385736;19;20014;-69
2022/10/04 02:41:22;;;;;;;;;;;7.20;59.30;;;;;;7363455;19;20019;-69
2022/10/04 02:43:56;;;;;;;19.38;11.48;;;7.10;59.10;;;;;;7363753;19;20378;-69
2022/10/04 02:46:29;;;;;;;17.48;10.98;;;7.20;59.40;;;;;;7360502;19;20232;-69
2022/10/04 02:49:02;;;;;;;13.77;10.30;;;7.10;58.50;;;;;;7363804;19;20561;-69
2022/10/04 02:51:35;;;;;;;15.45;10.75;;;7.10;58.70;;;;;;7360140;19;20014;-69
2022/10/04 02:54:12;;;;;;;17.00;10.68;;;7.10;59.10;;;;;;7363111;19;20042;-70
2022/10/04 02:56:45;;;;;;;15.05;10.38;;;7.10;59.00;;;;;;7382399;19;20011;-69
2022/10/04 02:59:18;;;;;;;14.27;10.32;;;7.10;59.00;;;;;;7362088;19;20038;-69
2022/10/04 03:01:53;;;;;;;17.33;10.15;;;7.10;59.00;;;;;;7363345;19;20019;-69
2022/10/04 03:04:26;;;;;;;16.27;10.05;;;7.10;58.90;;;;;;7362451;19;20015;-69
2022/10/04 03:06:57;;;;;;;19.20;10.63;;;7.00;58.20;;;;;;7360423;19;20015;-69
2022/10/04 03:09:27;;;;;;;17.35;11.27;;;7.00;58.70;;;;;;7362576;19;20011;-69
2022/10/04 03:12:03;;;;;;;15.32;10.43;;;7.00;58.60;;;;;;7384914;19;20014;-69
2022/10/04 03:14:33;;;;;;;17.40;11.00;;;7.10;58.80;;;;;;7362854;19;20015;-69
2022/10/04 03:17:06;;;;;;;18.70;11.90;;;7.10;58.40;;;;;;7358695;19;20544;-69
2022/10/04 03:19:37;;;;;;;17.98;11.48;;;7.10;58.70;;;;;;7361087;19;20037;-69
2022/10/04 03:22:10;;;;;;;17.00;12.05;;;7.10;58.20;;;;;;7363683;19;20017;-68
2022/10/04 03:24:48;;;;;;;20.98;11.20;;;7.10;58.40;;;;;;7359883;19;20466;-69
2022/10/04 03:27:24;;;;;;;18.88;11.43;;;7.10;57.60;;;;;;7360295;19;20014;-69
2022/10/04 03:29:58;;;;;;;16.65;11.10;;;7.10;58.10;;;;;;7384205;19;20011;-69
2022/10/04 03:32:30;;;;;;;16.35;11.40;;;7.10;57.70;;;;;;7362276;19;20023;-70
2022/10/04 03:35:03;;;;;;;20.48;11.73;;;7.10;57.70;;;;;;7360562;19;20015;-69
2022/10/04 03:37:39;;;;;;;16.85;10.63;;;7.00;57.60;;;;;;7359408;19;20006;-69
2022/10/04 03:40:12;;;;;;;15.57;10.98;;;7.00;57.90;;;;;;7361095;19;20006;-70
2022/10/04 03:42:48;;;;;;;18.65;11.75;;;7.00;57.70;;;;;;7360635;19;20018;-69
2022/10/04 03:45:21;;;;;;;19.15;10.80;;;7.00;57.50;;;;;;7360719;19;20019;-69
2022/10/04 03:47:53;;;;;;;18.58;11.98;;;7.00;57.20;;;;;;7381521;19;20502;-69
2022/10/04 03:50:26;;;;;;;17.60;11.52;;;6.90;57.30;;;;;;7360275;19;20013;-69
2022/10/04 03:52:58;;;;;;;17.42;11.85;;;6.90;57.20;;;;;;7360065;19;20369;-69
2022/10/04 03:55:37;;;;;;;17.40;11.50;;;6.90;57.50;;;;;;7359229;19;20564;-70
2022/10/04 03:58:12;;;;;;;20.45;11.38;;;6.90;57.60;;;;;;7359008;19;20030;-67
2022/10/04 04:00:46;;;;;;;19.08;11.35;;;6.90;57.40;;;;;;7362236;19;20010;-68
2022/10/04 04:03:21;;;;;;;22.17;11.95;;;6.90;57.40;;;;;;7361265;19;20036;-69
2022/10/04 04:05:54;;;;;;;16.08;11.40;;;6.90;57.50;;;;;;7381340;19;20018;-68
2022/10/04 04:08:30;;;;;;;15.63;11.25;;;6.80;57.20;;;;;;7359266;19;20086;-69
2022/10/04 04:11:02;;;;;;;20.88;11.80;;;6.90;57.70;;;;;;7359170;19;20014;-69
2022/10/04 04:13:46;;;;;;;16.70;11.35;;;6.80;57.40;;;;;;7360053;19;20010;-69
2022/10/04 04:16:16;;;;;;;17.63;11.48;;;6.90;57.80;;;;;;7358694;19;20014;-69
2022/10/04 04:18:47;;;;;;;19.25;11.25;;;6.90;57.30;;;;;;7358262;19;20015;-69
2022/10/04 04:21:22;;;;;;;18.75;12.13;;;6.90;57.10;;;;;;7358339;19;20018;-70
2022/10/04 04:23:57;;;;;;;18.65;11.82;;;6.80;56.70;;;;;;7381436;19;20040;-67
2022/10/04 04:26:38;;;;;;;18.02;12.00;;;6.90;56.90;;;;;;7359546;19;20014;-69
2022/10/04 04:29:17;;;;;;;20.05;12.00;;;6.90;55.90;;;;;;7359747;19;20562;-68
2022/10/04 04:31:53;;;;;;;18.77;12.52;;;6.80;55.90;;;;;;7358389;19;20015;-68
2022/10/04 04:34:26;;;;;;;25.73;12.57;;;6.80;55.80;;;;;;7358687;19;20462;-68
2022/10/04 04:37:00;;;;;;;16.40;12.02;;;6.80;55.80;;;;;;7358662;19;20016;-68
2022/10/04 04:39:43;;;;;;;17.38;11.98;;;6.90;55.90;;;;;;7357512;19;20018;-68
2022/10/04 04:42:20;;;;;;;22.42;11.57;;;6.90;55.90;;;;;;7361131;19;20011;-68
2022/10/04 04:44:55;;;;;;;16.05;10.93;;;6.90;55.30;;;;;;7380760;19;20366;-68
2022/10/04 04:47:32;;;;;;;14.25;9.80;;;6.90;54.90;;;;;;7356621;19;20012;-68
2022/10/04 04:50:07;;;;;;;14.65;10.27;;;6.80;54.00;;;;;;7358169;19;20014;-68
2022/10/04 04:52:39;;;;;;;15.45;10.18;;;6.70;53.80;;;;;;7358027;19;20010;-69
2022/10/04 04:55:19;;;;;;;14.68;9.30;;;6.80;54.40;;;;;;7355222;19;20354;-68
2022/10/04 04:57:50;;;;;;;15.90;9.57;;;6.70;53.80;;;;;;7356931;19;20018;-69
2022/10/04 05:00:26;;;;;;;15.25;10.32;;;6.70;54.10;;;;;;7359143;19;20098;-70
2022/10/04 05:02:57;;;;;;;15.05;9.95;;;6.60;54.00;;;;;;7381427;19;20015;-70
2022/10/04 05:05:29;;;;;;;18.65;11.27;;;6.70;54.80;;;;;;7357562;19;20360;-70
2022/10/04 05:08:14;;;;;;;16.48;11.60;;;6.70;55.10;;;;;;7355808;19;20018;-69
2022/10/04 05:10:47;;;;;;;16.48;12.40;;;6.70;55.30;;;;;;7357917;19;20043;-68
2022/10/04 05:13:18;;;;;;;18.38;13.30;;;6.70;54.90;;;;;;7358520;19;20015;-69
2022/10/04 05:15:56;;;;;;;26.23;14.27;;;6.70;54.80;;;;;;7355521;19;20485;-69
2022/10/04 05:18:31;;;;;;;19.85;13.77;;;6.70;54.60;;;;;;7355951;19;20023;-68
2022/10/04 05:21:07;;;;;;;17.40;14.05;;;6.70;54.80;;;;;;7365992;19;20573;-70
2022/10/04 05:23:37;;;;;;;18.98;12.85;;;6.70;54.80;;;;;;7380146;19;20454;-68
2022/10/04 05:26:12;;;;;;;17.75;11.38;;;6.80;54.80;;;;;;7355495;19;20038;-68
2022/10/04 05:28:42;;;;;;;20.25;10.45;;;6.90;54.70;;;;;;7355045;19;20066;-69
2022/10/04 05:31:33;;;;;;;16.95;10.35;;;6.80;53.30;;;;;;7356014;19;20003;-70
2022/10/04 05:34:08;;;;;;;20.33;11.70;;;6.90;54.10;;;;;;7354673;19;20041;-69
2022/10/04 05:36:56;;;;;;;;;;;6.90;54.10;;;;;;7356044;19;20021;-69
2022/10/04 05:39:32;;;;;;;15.32;10.80;;;7.00;54.80;;;;;;7355180;19;20343;-70
2022/10/04 05:42:11;;;;;;;17.02;11.15;;;7.00;53.10;;;;;;7362700;19;20052;-69
2022/10/04 05:44:50;;;;;;;14.35;11.10;;;7.10;53.10;;;;;;7377385;19;20030;-69
2022/10/04 05:47:26;;;;;;;22.15;14.10;;;7.20;52.20;;;;;;7354359;19;20014;-70
2022/10/04 05:49:59;;;;;;;17.65;9.63;;;7.30;52.20;;;;;;7355822;19;20408;-68
2022/10/04 05:52:34;;;;;;;13.90;8.63;;;7.30;51.30;;;;;;7355684;19;20069;-69
2022/10/04 05:55:22;;;;;;;14.48;9.27;;;7.40;51.00;;;;;;7354885;19;20069;-69
2022/10/04 05:58:18;;;;;;;14.90;9.65;;;7.40;49.40;;;;;;7353587;19;20015;-69
2022/10/04 06:01:09;;;;;;;14.20;9.52;;;7.40;48.40;;;;;;7356517;19;20014;-69
2022/10/04 06:03:57;;;;;;;15.27;9.45;;;7.60;48.40;;;;;;7355373;19;20019;-69
2022/10/04 06:06:37;;;;;;;16.60;9.65;;;7.50;47.60;;;;;;7356819;19;20038;-70
2022/10/04 06:09:14;;;;;;;14.13;9.85;;;7.60;48.20;;;;;;7363287;19;20059;-69
2022/10/04 06:12:01;;;;;;;12.98;9.85;;;7.60;46.20;;;;;;7386318;19;20018;-69
2022/10/04 06:14:47;;;;;;;14.48;9.88;;;7.70;45.80;;;;;;7362915;19;20014;-69
2022/10/04 06:17:32;;;;;;;14.88;9.23;;;7.70;44.70;;;;;;7361022;19;20025;-69
2022/10/04 06:20:37;;;;;;;12.75;8.95;;;7.80;44.50;;;;;;7361838;19;20015;-68
2022/10/04 06:23:14;;;;;;;14.73;8.85;;;7.80;43.10;;;;;;7362187;19;20335;-69
2022/10/04 06:25:49;;;;;;;15.55;8.13;;;7.70;40.30;;;;;;7360754;19;20007;-71
2022/10/04 06:28:23;;;;;;;11.43;7.72;;;7.70;40.20;;;;;;7362838;19;20015;-68
2022/10/04 06:31:16;;;;;;;13.15;7.78;;;7.70;40.30;;;;;;7361431;19;20034;-69
2022/10/04 06:34:03;;;;;;;14.98;8.50;;;7.80;41.60;;;;;;7361425;19;20015;-70
2022/10/04 06:36:59;;;;;;;10.68;7.93;;;7.90;41.20;;;;;;7361133;19;20413;-70
2022/10/04 06:39:55;;;;;;;15.02;8.32;;;8.00;40.50;;;;;;7361277;19;20014;-70
2022/10/04 06:42:42;;;;;;;11.75;8.70;;;8.10;40.60;;;;;;7362459;19;20487;-69
2022/10/04 06:45:30;;;;;;;12.95;9.32;;;8.20;40.70;;;;;;7362497;19;20010;-69
2022/10/04 06:48:24;;;;;;;19.10;9.50;;;8.20;38.90;;;;;;7380979;19;20082;-69
2022/10/04 06:51:01;;;;;;;23.10;11.70;;;8.30;38.50;;;;;;7362765;19;20014;-69
2022/10/04 06:53:42;;;;;;;16.02;11.27;;;8.40;36.70;;;;;;7360611;19;20466;-69
2022/10/04 06:56:34;;;;;;;18.67;11.18;;;8.50;35.50;;;;;;7360028;19;20015;-69
2022/10/04 06:59:26;;;;;;;20.52;9.68;;;8.70;35.20;;;;;;7361349;19;20070;-69
2022/10/04 07:02:00;;;;;;;12.80;9.05;;;8.70;34.80;;;;;;7362239;19;20029;-70
2022/10/04 07:04:38;;;;;;;16.98;8.10;;;8.80;35.20;;;;;;7357472;19;20050;-69
2022/10/04 07:07:37;;;;;;;11.10;7.47;;;8.70;32.70;;;;;;7358325;19;20024;-68
2022/10/04 07:10:34;;;;;;;12.15;8.50;;;8.80;30.60;;;;;;7358356;19;20011;-69
2022/10/04 07:13:25;;;;;;;12.57;8.20;;;8.90;29.70;;;;;;7359035;19;20037;-69
2022/10/04 07:16:02;;;;;;;10.32;8.18;;;8.80;30.20;;;;;;7358535;19;20019;-69
2022/10/04 07:18:39;;;;;;;13.52;7.32;;;9.00;30.00;;;;;;7357230;19;20010;-69
2022/10/04 07:21:12;;;;;;;11.10;7.50;;;8.90;31.70;;;;;;7359917;19;20018;-68
2022/10/04 07:23:49;;;;;;;11.68;7.22;;;9.00;29.80;;;;;;7382149;19;20078;-70
2022/10/04 07:26:28;;;;;;;10.40;6.63;;;9.00;29.80;;;;;;7359645;19;20014;-68
2022/10/04 07:31:47;;;;;;;11.75;7.43;;;9.10;29.30;;;;;;7360317;19;20078;-70
2022/10/04 07:34:22;;;;;;;11.27;7.28;;;9.20;30.20;;;;;;7359382;19;20499;-69
2022/10/04 07:36:55;;;;;;;15.18;8.20;;;9.30;28.20;;;;;;7359504;19;20024;-69
2022/10/04 07:39:29;;;;;;;9.90;6.90;;;9.40;28.00;;;;;;7360049;19;20011;-69
2022/10/04 07:42:13;;;;;;;13.05;7.07;;;9.50;26.80;;;;;;7381788;19;20021;-68
2022/10/04 07:44:47;;;;;;;13.48;6.82;;;9.50;25.50;;;;;;7361416;19;20561;-70
2022/10/04 07:47:21;;;;;;;10.88;7.60;;;9.70;25.90;;;;;;7357873;19;20082;-69
2022/10/04 07:49:52;;;;;;;9.77;6.95;;;9.80;24.80;;;;;;7360689;19;20014;-70
2022/10/04 07:52:47;;;;;;;12.82;7.35;;;10.10;22.10;;;;;;7370026;19;20021;-69
2022/10/04 07:55:27;;;;;;;9.85;7.13;;;10.10;21.60;;;;;;7368576;19;20031;-69
2022/10/04 07:58:16;;;;;;;9.45;6.88;;;10.30;22.00;;;;;;7369445;19;20523;-70
2022/10/04 08:00:53;;;;;;;11.27;6.53;;;10.40;20.60;;;;;;7369988;19;20006;-70
2022/10/04 08:03:38;;;;;;;12.07;6.85;;;10.50;19.80;;;;;;7358620;19;20434;-70
2022/10/04 08:06:14;;;;;;;7.57;5.63;;;10.40;17.50;;;;;;7332101;19;20035;-68
2022/10/04 08:09:15;;;;;;;7.72;5.85;;;10.40;17.40;;;;;;7383338;19;20046;-69
2022/10/04 08:11:53;;;;;;;7.40;5.50;;;10.40;17.10;;;;;;7368138;19;20470;-69
2022/10/04 08:14:52;;;;;;;9.35;5.25;;;10.50;16.90;;;;;;7360211;19;20002;-69
2022/10/04 08:17:40;;;;;;;9.10;5.10;;;10.50;16.90;;;;;;7360871;19;20006;-70
2022/10/04 08:20:36;;;;;;;10.68;5.57;;;10.50;18.90;;;;;;7364679;19;20146;-70
2022/10/04 08:23:25;;;;;;;8.18;5.22;;;10.40;19.10;;;;;;7365291;19;20011;-70
2022/10/04 08:26:06;;;;;;;9.43;5.97;;;10.30;18.80;;;;;;7363778;19;20093;-70
2022/10/04 08:31:42;;;;;;;9.82;5.18;;;10.50;19.90;;;;;;7366590;19;20130;-70
2022/10/04 08:34:30;;;;;;;8.63;5.30;;;11.00;18.40;;;;;;7362872;19;20466;-70
2022/10/04 08:37:12;;;;;;;11.27;4.85;;;11.20;15.80;;;;;;7359004;19;20010;-70
2022/10/04 08:39:59;;;;;;;8.93;5.45;;;11.30;14.10;;;;;;7365323;19;20011;-67
2022/10/04 08:42:54;;;;;;;6.85;4.75;;;11.30;14.10;;;;;;7365920;19;20104;-69
2022/10/04 08:46:08;;;;;;;5.78;4.60;;;11.00;12.60;;;;;;7360714;19;20010;-69
2022/10/04 08:49:10;;;;;;;6.25;4.65;;;11.30;12.30;;;;;;7357757;19;20010;-70
2022/10/04 08:52:19;;;;;;;10.55;4.60;;;11.40;11.50;;;;;;7360863;19;20011;-69
2022/10/04 08:55:23;;;;;;;6.07;4.63;;;11.80;9.20;;;;;;7355744;19;20017;-69
2022/10/04 08:58:16;;;;;;;10.75;5.13;;;11.90;9.10;;;;;;7352962;19;20006;-68
2022/10/04 09:01:01;;;;;;;12.63;4.70;;;12.10;7.90;;;;;;7360162;19;20017;-69
2022/10/04 09:04:15;;;;;;;8.20;4.38;;;12.40;5.70;;;;;;7358599;19;20010;-69
2022/10/04 09:06:52;;;;;;;7.03;4.10;;;12.40;3.50;;;;;;7354132;19;20052;-70
2022/10/04 09:09:52;;;;;;;5.50;4.30;;;12.40;3.40;;;;;;7359851;19;20015;-69
2022/10/04 09:12:49;;;;;;;7.97;4.40;;;12.60;3.50;;;;;;7363533;19;20087;-68
2022/10/04 09:15:37;;;;;;;6.80;4.63;;;12.70;1.20;;;;;;7360579;19;20049;-69
2022/10/04 09:18:29;;;;;;;7.38;4.85;;;12.80;1.00;;;;;;7356316;19;20055;-70
2022/10/04 09:21:05;;;;;;;10.85;5.70;;;12.80;1.80;;;;;;7386183;19;20023;-70
2022/10/04 09:24:03;;;;;;;6.70;4.47;;;13.00;1.50;;;;;;7363377;19;19999;-69
2022/10/04 09:26:44;;;;;;;7.82;5.30;;;13.10;1.00;;;;;;7357254;19;20014;-68
2022/10/04 09:29:54;;;;;;;11.20;5.18;;;13.20;1.00;;;;;;7361802;19;20027;-70
2022/10/04 09:32:58;;;;;;;10.15;6.72;;;13.20;1.00;;;;;;7361387;19;20075;-69
2022/10/04 09:35:52;;;;;;;13.07;7.05;;;13.50;1.00;;;;;;7362013;19;20463;-70
2022/10/04 09:38:53;;;;;;;9.70;5.57;;;13.60;1.00;;;;;;7358106;19;20022;-70
2022/10/04 09:42:24;;;;;;;10.50;5.43;;;13.60;1.00;;;;;;7363660;19;20010;-68
2022/10/04 09:45:19;;;;;;;8.48;4.35;;;13.80;1.00;;;;;;7359858;19;20479;-70
2022/10/04 09:48:01;;;;;;;8.87;4.60;;;13.80;1.00;;;;;;7356179;19;20335;-69
2022/10/04 09:50:57;;;;;;;9.75;4.60;;;14.00;1.00;;;;;;7362348;19;20274;-69
2022/10/04 09:53:39;;;;;;;9.93;5.15;;;14.10;1.00;;;;;;7361879;19;20010;-69
2022/10/04 09:56:36;;;;;;;9.80;4.57;;;14.10;1.00;;;;;;7360826;19;20375;-69
2022/10/04 09:59:36;;;;;;;7.97;4.47;;;14.40;1.00;;;;;;7361924;19;20011;-69
2022/10/04 10:02:40;;;;;;;4.78;3.38;;;14.20;1.00;;;;;;7363901;19;20010;-69
2022/10/04 10:05:26;;;;;;;7.85;4.03;;;14.30;1.00;;;;;;7359770;19;20018;-71
2022/10/04 10:08:05;;;;;;;7.25;3.90;;;14.60;1.00;;;;;;7357648;19;20478;-70
2022/10/04 10:13:54;;;;;;;6.90;3.75;;;14.30;1.00;;;;;;7357178;19;20487;-73
2022/10/04 10:16:37;;;;;;;6.50;3.72;;;14.40;1.00;;;;;;7357270;19;20010;-70
2022/10/04 10:19:30;;;;;;;7.43;3.20;;;14.50;1.00;;;;;;7362598;19;20017;-70
2022/10/04 10:22:30;;;;;;;7.40;3.70;;;14.70;1.00;;;;;;7361250;19;20390;-69
2022/10/04 10:25:24;;;;;;;9.00;3.65;;;14.50;1.00;;;;;;7360487;19;20011;-72
2022/10/04 10:28:07;;;;;;;10.68;3.65;;;14.60;1.00;;;;;;7354248;19;20007;-69
2022/10/04 10:30:51;;;;;;;5.85;2.40;;;14.80;1.00;;;;;;7361801;19;20179;-70
2022/10/04 10:33:38;;;;;;;4.47;2.70;;;14.70;1.00;;;;;;7361711;19;20015;-69
2022/10/04 10:36:39;;;;;;;8.70;2.97;;;14.60;1.00;;;;;;7361010;19;20025;-71
2022/10/04 10:39:44;;;;;;;4.75;3.05;;;14.60;1.00;;;;;;7363019;19;20021;-70
2022/10/04 10:42:38;;;;;;;6.95;3.38;;;14.80;1.00;;;;;;7360594;19;20014;-71
2022/10/04 10:45:21;;;;;;;10.20;3.20;;;14.90;1.00;;;;;;7360104;19;20011;-74
2022/10/04 10:48:00;;;;;;;10.00;4.93;;;15.10;1.00;;;;;;7377540;19;20014;-69
2022/10/04 10:51:02;;;;;;;6.88;3.97;;;15.10;1.00;;;;;;7361397;19;20017;-71
2022/10/04 10:54:10;;;;;;;7.95;3.45;;;15.30;1.00;;;;;;7357043;19;20019;-68
2022/10/04 10:57:02;;;;;;;6.32;2.92;;;15.60;1.00;;;;;;7358379;19;20017;-70
2022/10/04 11:00:01;;;;;;;5.60;3.08;;;15.60;1.00;;;;;;7367650;19;20383;-68
2022/10/04 11:03:19;;;;;;;4.93;2.95;;;15.90;1.00;;;;;;7366953;19;20010;-69
2022/10/04 11:06:16;;;;;;;4.85;2.88;;;15.80;1.00;;;;;;7366526;19;20019;-69
2022/10/04 11:09:23;;;;;;;8.23;3.30;;;15.90;1.00;;;;;;7363310;19;20011;-70
2022/10/04 11:12:32;;;;;;;8.77;3.45;;;16.10;1.00;;;;;;7366075;19;20014;-70
2022/10/04 11:15:41;;;;;;;6.80;2.78;;;16.20;1.00;;;;;;7258373;19;2004442;-69
2022/10/04 11:18:30;;;;;;;5.97;3.35;;;16.20;1.00;;;;;;7359746;19;20026;-70
2022/10/04 11:21:25;;;;;;;7.70;3.45;;;16.00;1.00;;;;;;7388634;19;20023;-69
2022/10/04 11:24:30;;;;;;;5.07;3.38;;;16.10;1.00;;;;;;7261747;19;2004199;-69
2022/10/04 11:27:15;;;;;;;6.70;3.58;;;16.30;1.00;;;;;;7379893;19;20406;-69
2022/10/04 11:30:06;;;;;;;6.00;3.17;;;16.50;1.00;;;;;;7367299;19;20034;-69
2022/10/04 11:33:06;;;;;;;4.10;2.85;;;16.30;1.00;;;;;;7367021;19;20014;-68
2022/10/04 11:36:09;;;;;;;4.20;2.70;;;16.60;1.00;;;;;;7362135;19;20498;-70
2022/10/04 11:39:04;;;;;;;6.38;3.03;;;16.60;1.00;;;;;;7361376;19;20018;-69
2022/10/04 11:41:55;;;;;;;4.28;3.10;;;17.00;1.00;;;;;;7365379;19;20021;-70
2022/10/04 11:44:45;;;;;;;5.90;3.45;;;17.30;1.00;;;;;;7362651;19;20021;-69
2022/10/04 11:47:33;;;;;;;7.40;5.20;;;17.30;1.00;;;;;;7356792;19;20014;-69
2022/10/04 11:50:29;;;;;;;6.65;2.80;;;17.20;1.00;;;;;;7364391;19;20038;-70
2022/10/04 11:53:43;;;;;;;4.05;2.70;;;17.20;1.00;;;;;;7365382;19;20018;-70
2022/10/04 11:56:32;;;;;;;6.75;2.90;;;17.20;1.00;;;;;;7361305;19;20018;-71
2022/10/04 11:59:24;;;;;;;6.28;2.75;;;17.20;1.00;;;;;;7366639;19;20006;-69
2022/10/04 12:02:19;;;;;;;5.10;3.28;;;17.50;1.00;;;;;;7365915;19;20017;-70
2022/10/04 12:05:11;;;;;;;6.40;3.00;;;17.50;1.00;;;;;;7360824;19;20022;-69
2022/10/04 12:07:53;;;;;;;4.55;2.40;;;17.70;1.00;;;;;;7358213;19;20022;-70
2022/10/04 12:10:32;;;;;;;3.78;2.35;;;17.70;1.00;;;;;;7365483;19;20475;-70
2022/10/04 12:13:27;;;;;;;5.90;3.22;;;17.70;1.00;;;;;;7366553;19;20502;-67
2022/10/04 12:16:28;;;;;;;6.30;3.92;;;17.80;1.00;;;;;;7364454;19;20042;-70
2022/10/04 12:19:33;;;;;;;6.68;4.05;;;17.70;1.00;;;;;;7364566;19;20010;-69
2022/10/04 12:22:23;;;;;;;10.27;3.90;;;17.50;1.00;;;;;;7365486;19;20006;-69
2022/10/04 12:25:18;;;;;;;6.60;2.90;;;17.50;1.00;;;;;;7362110;19;20087;-70
2022/10/04 12:28:12;;;;;;;3.83;2.03;;;17.30;1.00;;;;;;7357807;19;20014;-69
2022/10/04 12:31:15;;;;;;;4.72;3.08;;;17.40;1.00;;;;;;7365216;19;20014;-70
2022/10/04 12:33:52;;;;;;;8.38;3.65;;;17.60;1.00;;;;;;7363170;19;20371;-70
2022/10/04 12:36:37;;;;;;;5.90;2.80;;;17.70;1.00;;;;;;7360945;19;20030;-70
2022/10/04 12:39:28;;;;;;;6.90;2.25;;;17.50;1.00;;;;;;7366740;19;20014;-71
2022/10/04 12:42:11;;;;;;;4.40;2.80;;;17.50;1.00;;;;;;7387070;19;20011;-68
2022/10/04 12:45:03;;;;;;;3.83;2.50;;;17.70;1.00;;;;;;7362982;19;20018;-68
2022/10/04 12:47:52;;;;;;;5.72;2.85;;;17.60;1.00;;;;;;7355054;19;20038;-69
2022/10/04 12:50:32;;;;;;;3.42;2.38;;;17.80;1.00;;;;;;7364635;19;20002;-69
2022/10/04 12:53:14;;;;;;;5.70;2.22;;;17.90;1.00;;;;;;7362366;19;20474;-69
2022/10/04 12:55:54;;;;;;;4.50;2.78;;;17.80;1.00;;;;;;7360105;19;20477;-70
2022/10/04 12:58:29;;;;;;;3.33;1.90;;;17.80;1.00;;;;;;7356267;19;20014;-69
2022/10/04 13:01:12;;;;;;;5.10;2.60;;;17.80;1.00;;;;;;7363288;19;20011;-69
2022/10/04 13:04:04;;;;;;;4.53;2.25;;;17.70;1.00;;;;;;7360301;19;20031;-69
2022/10/04 13:06:48;;;;;;;3.70;2.25;;;17.80;1.00;;;;;;7356451;19;20637;-69
2022/10/04 13:09:20;;;;;;;;;;;17.90;1.00;;;;;;7364490;19;20015;-69
2022/10/04 13:12:13;;;;;;;3.35;2.40;;;17.80;1.00;;;;;;7385840;19;19968;-69
2022/10/04 13:15:00;;;;;;;7.28;2.50;;;18.00;1.00;;;;;;7361309;19;20011;-69
2022/10/04 13:17:41;;;;;;;3.75;2.08;;;18.00;1.00;;;;;;7350257;19;20017;-69
2022/10/04 13:20:30;;;;;;;3.40;2.03;;;18.00;1.00;;;;;;7362692;19;20018;-69
2022/10/04 13:23:04;;;;;;;4.00;2.22;;;18.00;1.00;;;;;;7363217;19;20015;-69
2022/10/04 13:26:06;;;;;;;3.95;2.15;;;18.00;1.00;;;;;;7359432;19;20365;-69
2022/10/04 13:28:46;;;;;;;3.42;2.45;;;17.90;1.00;;;;;;7357924;19;20015;-69
2022/10/04 13:31:24;;;;;;;2.92;2.08;;;18.00;1.00;;;;;;7364184;19;20006;-69
2022/10/04 13:34:08;;;;;;;3.95;1.98;;;18.00;1.00;;;;;;7359493;19;20014;-69
2022/10/04 13:37:02;;;;;;;3.50;2.03;;;18.00;1.00;;;;;;7354139;19;20006;-69
2022/10/04 13:39:55;;;;;;;2.80;2.25;;;18.00;1.00;;;;;;7362915;19;20118;-69
2022/10/04 13:42:49;;;;;;;3.40;2.03;;;18.20;1.00;;;;;;7363727;19;20057;-70
2022/10/04 13:45:49;;;;;;;5.40;2.10;;;18.30;1.00;;;;;;7361283;19;20078;-69
2022/10/04 13:48:29;;;;;;;3.63;2.30;;;18.30;1.00;;;;;;7353185;19;20336;-70
2022/10/04 13:51:20;;;;;;;2.83;2.20;;;18.20;1.00;;;;;;7385788;19;20427;-68
2022/10/04 13:57:05;;;;;;;4.47;2.13;;;18.10;1.00;;;;;;7356765;19;20026;-69
2022/10/04 13:59:43;;;;;;;2.90;1.83;;;18.20;1.00;;;;;;7362848;19;20010;-69
2022/10/04 14:02:53;;;;;;;4.03;2.00;;;18.40;1.00;;;;;;7363459;19;20029;-69
2022/10/04 14:05:56;;;;;;;3.78;2.13;;;18.30;1.00;;;;;;7360701;19;20423;-69
2022/10/04 14:08:57;;;;;;;2.25;1.52;;;18.20;1.00;;;;;;7355958;19;20013;-69
2022/10/04 14:11:59;;;;;;;2.53;1.70;;;18.30;1.00;;;;;;7363783;19;20007;-69
2022/10/04 14:14:55;;;;;;;1.95;1.40;;;18.20;1.00;;;;;;7360975;19;20015;-69
2022/10/04 14:17:45;;;;;;;3.05;1.48;;;18.20;1.00;;;;;;7351550;19;21390;-70
2022/10/04 14:20:55;;;;;;;3.33;2.20;;;18.30;1.00;;;;;;7363597;19;20006;-70
2022/10/04 14:24:11;;;;;;;7.53;2.67;;;18.30;1.00;;;;;;7362477;19;20521;-70
2022/10/04 14:27:12;;;;;;;4.38;2.33;;;18.30;1.00;;;;;;7356127;19;20007;-70